Time;durP1;ratioP1;P1;durP2;ratioP2;P2;SDS_P1;SDS_P2;PMS_P1;PMS_P2;Temp;Humidity;BMP_temperature;BMP_pressure;BME280_temperature;BME280_humidity;BME280_pressure;Samples;Min_cycle;Max_cycle;Signal;HPM_P1;HPM_P2
2022/01/27 00:07:19;;;;;;;;;;;15.50;32.80;;;;;;8299086;28;20485;-55
2022/01/27 00:11:20;;;;;;;;;;;15.50;32.90;;;;;;8298151;28;19918;-54
2022/01/27 00:15:28;;;;;;;;;;;15.50;32.90;;;;;;8297835;28;19941;-54
2022/01/27 00:19:28;;;;;;;;;;;15.50;32.90;;;;;;8297303;28;19918;-54
2022/01/27 00:23:30;;;;;;;;;;;15.50;32.90;;;;;;8297667;28;19933;-54
2022/01/27 00:27:30;;;;;;;;;;;15.50;33.00;;;;;;8297654;28;19921;-55
2022/01/27 00:31:31;;;;;;;;;;;15.50;33.00;;;;;;8297522;28;19996;-55
2022/01/27 00:35:31;;;;;;;;;;;15.40;32.90;;;;;;8297516;28;20341;-51
2022/01/27 00:39:32;;;;;;;;;;;15.40;32.90;;;;;;8297369;28;19921;-51
2022/01/27 00:43:32;;;;;;;;;;;15.40;32.90;;;;;;8296828;28;19925;-53
2022/01/27 00:47:33;;;;;;;;;;;15.40;33.00;;;;;;8295570;28;20012;-55
2022/01/27 00:51:37;;;;;;;;;;;15.30;33.00;;;;;;8298497;28;19921;-53
2022/01/27 00:55:41;;;;;;;;;;;15.40;33.00;;;;;;8303181;28;20302;-52
2022/01/27 00:59:55;;;;;;;;;;;15.40;33.00;;;;;;8303710;28;20331;-52
2022/01/27 01:03:59;;;;;;;;;;;15.40;33.10;;;;;;8303199;28;20375;-53
2022/01/27 01:08:31;;;;;;;;;;;15.30;33.00;;;;;;8303311;28;19918;-52
2022/01/27 01:34:26;;;;;;;;;;;15.50;32.90;;;;;;8306568;28;20283;-52
2022/01/27 01:38:19;;;;;;;;;;;15.50;32.80;;;;;;8329798;28;19971;-54
2022/01/27 01:42:20;;;;;;;;;;;15.50;32.80;;;;;;8335186;28;19917;-50
2022/01/27 01:46:20;;;;;;;;;;;15.50;32.80;;;;;;8334620;28;20390;-53
2022/01/27 01:50:20;;;;;;;;;;;15.50;32.80;;;;;;8334848;28;20384;-52
2022/01/27 01:54:21;;;;;;;;;;;15.50;32.70;;;;;;8334865;28;20381;-55
2022/01/27 01:58:22;;;;;;;;;;;15.50;32.80;;;;;;8316602;28;19917;-54
2022/01/27 02:02:22;;;;;;;;;;;15.50;32.80;;;;;;8334623;28;19921;-51
2022/01/27 02:06:36;;;;;;;;;;;15.40;32.70;;;;;;8334696;28;20088;-51
2022/01/27 02:17:58;;;;;;;;;;;15.50;32.70;;;;;;8333848;28;19928;-54
2022/01/27 02:19:20;;;;;;;;;;;15.50;32.70;;;;;;8333654;28;20416;-49
2022/01/27 02:23:20;;;;;;;;;;;15.50;32.80;;;;;;8330390;28;20394;-53
2022/01/27 02:27:21;;;;;;;;;;;15.40;32.70;;;;;;8334011;28;19914;-55
2022/01/27 02:31:22;;;;;;;;;;;15.40;32.70;;;;;;8333157;28;19921;-53
2022/01/27 02:35:24;;;;;;;;;;;15.40;32.80;;;;;;8333574;28;19967;-50
2022/01/27 02:39:24;;;;;;;;;;;15.40;32.80;;;;;;8333629;28;20004;-53
2022/01/27 02:43:25;;;;;;;;;;;15.40;32.80;;;;;;8332866;28;19926;-52
2022/01/27 02:47:26;;;;;;;;;;;15.40;32.80;;;;;;8333865;28;19917;-54
2022/01/27 02:51:26;;;;;;;;;;;15.40;32.80;;;;;;8333123;28;20459;-52
2022/01/27 02:55:27;;;;;;;;;;;15.40;32.70;;;;;;8332502;28;20366;-51
2022/01/27 02:59:27;;;;;;;;;;;15.30;32.80;;;;;;8332790;28;19940;-53
2022/01/27 03:03:28;;;;;;;;;;;15.30;32.70;;;;;;8332700;28;20024;-52
2022/01/27 03:07:28;;;;;;;;;;;15.30;32.70;;;;;;8332449;28;20000;-52
2022/01/27 03:11:38;;;;;;;;;;;15.30;32.70;;;;;;8332603;28;19971;-52
2022/01/27 03:15:40;;;;;;;;;;;15.30;32.80;;;;;;8330848;28;21272;-55
2022/01/27 03:19:40;;;;;;;;;;;15.30;32.80;;;;;;8331596;28;19932;-53
2022/01/27 03:23:41;;;;;;;;;;;15.30;32.80;;;;;;8332045;28;19979;-51
2022/01/27 03:27:46;;;;;;;;;;;15.30;32.80;;;;;;8332150;28;19924;-51
2022/01/27 03:31:47;;;;;;;;;;;15.30;32.80;;;;;;8331488;28;19925;-53
2022/01/27 03:35:47;;;;;;;;;;;15.20;32.80;;;;;;8331543;28;20010;-52
2022/01/27 03:39:48;;;;;;;;;;;15.20;32.80;;;;;;8331368;28;19964;-53
2022/01/27 03:43:49;;;;;;;;;;;15.20;32.80;;;;;;8330836;28;19925;-53
2022/01/27 03:47:49;;;;;;;;;;;15.20;32.80;;;;;;8331635;28;20459;-52
2022/01/27 03:51:50;;;;;;;;;;;15.20;32.80;;;;;;8331176;28;19917;-50
2022/01/27 03:55:51;;;;;;;;;;;15.30;32.80;;;;;;8330502;28;19917;-52
2022/01/27 03:59:51;;;;;;;;;;;15.20;32.80;;;;;;8331092;28;20433;-54
2022/01/27 04:03:55;;;;;;;;;;;15.20;32.80;;;;;;8331016;28;19925;-53
2022/01/27 04:07:57;;;;;;;;;;;15.20;32.80;;;;;;8331001;28;19944;-56
2022/01/27 04:11:58;;;;;;;;;;;15.20;32.80;;;;;;8330866;28;20423;-54
2022/01/27 04:15:59;;;;;;;;;;;15.30;32.80;;;;;;8330097;28;19917;-54
2022/01/27 04:19:59;;;;;;;;;;;15.30;32.80;;;;;;8330754;28;19917;-50
2022/01/27 04:24:00;;;;;;;;;;;15.30;32.80;;;;;;8330372;28;19932;-53
2022/01/27 04:28:05;;;;;;;;;;;15.30;32.70;;;;;;8330090;28;19929;-54
2022/01/27 04:32:08;;;;;;;;;;;15.40;32.80;;;;;;8337921;28;19956;-53
2022/01/27 04:36:17;;;;;;;;;;;15.30;32.70;;;;;;8330294;28;20000;-52
2022/01/27 04:40:25;;;;;;;;;;;15.30;32.70;;;;;;8331259;28;19986;-53
2022/01/27 04:48:30;;;;;;;;;;;15.40;32.70;;;;;;8330341;28;19921;-55
2022/01/27 04:52:34;;;;;;;;;;;15.40;32.70;;;;;;8329714;28;19925;-54
2022/01/27 04:56:37;;;;;;;;;;;15.40;32.70;;;;;;8330061;28;19917;-51
2022/01/27 05:00:38;;;;;;;;;;;15.40;32.70;;;;;;8330006;28;19925;-51
2022/01/27 05:04:43;;;;;;;;;;;15.40;32.60;;;;;;8329193;28;20291;-54
2022/01/27 05:08:43;;;;;;;;;;;15.40;32.70;;;;;;8328730;28;19920;-52
2022/01/27 05:12:48;;;;;;;;;;;15.30;32.60;;;;;;8329844;28;20004;-54
2022/01/27 05:16:49;;;;;;;;;;;15.30;32.60;;;;;;8329025;28;19924;-54
2022/01/27 05:20:49;;;;;;;;;;;15.30;32.60;;;;;;8329510;28;20160;-53
2022/01/27 05:24:50;;;;;;;;;;;15.30;32.60;;;;;;8329271;28;19925;-53
2022/01/27 05:28:50;;;;;;;;;;;15.30;32.60;;;;;;8328885;28;19917;-55
2022/01/27 05:32:51;;;;;;;;;;;15.30;32.60;;;;;;8329443;28;19921;-54
2022/01/27 05:36:51;;;;;;;;;;;15.30;32.60;;;;;;8329280;28;19917;-55
2022/01/27 05:40:52;;;;;;;;;;;15.30;32.70;;;;;;8334378;28;19917;-55
2022/01/27 05:44:52;;;;;;;;;;;15.30;32.60;;;;;;8335049;28;19925;-54
2022/01/27 05:48:53;;;;;;;;;;;15.30;32.60;;;;;;8334539;28;19917;-53
2022/01/27 05:52:53;;;;;;;;;;;15.20;32.60;;;;;;8335305;28;19940;-50
2022/01/27 05:56:54;;;;;;;;;;;15.30;32.60;;;;;;8334705;28;20020;-53
2022/01/27 06:00:54;;;;;;;;;;;15.30;32.60;;;;;;8316541;28;19923;-54
2022/01/27 06:04:55;;;;;;;;;;;15.20;32.60;;;;;;8334561;28;20015;-54
2022/01/27 06:08:55;;;;;;;;;;;15.20;32.70;;;;;;8334456;28;20020;-54
2022/01/27 06:12:56;;;;;;;;;;;15.20;32.70;;;;;;8333974;28;19917;-54
2022/01/27 06:16:56;;;;;;;;;;;15.20;32.70;;;;;;8334227;28;19921;-54
2022/01/27 06:21:00;;;;;;;;;;;15.20;32.70;;;;;;8334139;28;19917;-52
2022/01/27 06:25:01;;;;;;;;;;;15.20;32.70;;;;;;8333238;28;19925;-53
2022/01/27 06:29:01;;;;;;;;;;;15.20;32.70;;;;;;8333968;28;19917;-54
2022/01/27 06:33:03;;;;;;;;;;;15.20;32.70;;;;;;8333792;28;19924;-54
2022/01/27 06:37:03;;;;;;;;;;;15.30;32.60;;;;;;8332998;28;19917;-54
2022/01/27 06:41:04;;;;;;;;;;;15.30;32.60;;;;;;8333480;28;19917;-54
2022/01/27 06:45:05;;;;;;;;;;;15.30;32.50;;;;;;8333333;28;19925;-54
2022/01/27 06:49:06;;;;;;;;;;;15.30;32.50;;;;;;8331567;28;20023;-53
2022/01/27 06:53:06;;;;;;;;;;;15.30;32.60;;;;;;8333603;28;19921;-52
2022/01/27 06:57:07;;;;;;;;;;;15.40;32.60;;;;;;8332769;28;19924;-52
2022/01/27 07:01:07;;;;;;;;;;;15.40;32.60;;;;;;8332151;28;20325;-55
2022/01/27 07:05:09;;;;;;;;;;;15.40;32.60;;;;;;8332711;28;19925;-53
2022/01/27 07:09:09;;;;;;;;;;;15.40;33.10;;;;;;8332868;28;19917;-53
2022/01/27 07:13:10;;;;;;;;;;;15.40;32.60;;;;;;8331926;28;19962;-54
2022/01/27 07:17:13;;;;;;;;;;;15.30;32.50;;;;;;8332132;28;19932;-53
2022/01/27 07:21:13;;;;;;;;;;;15.30;32.50;;;;;;8332371;28;19940;-54
2022/01/27 07:25:14;;;;;;;;;;;15.30;32.50;;;;;;8331268;28;19969;-50
2022/01/27 07:29:14;;;;;;;;;;;15.30;32.50;;;;;;8332029;28;20317;-50
2022/01/27 07:33:15;;;;;;;;;;;15.30;32.50;;;;;;8331567;28;19917;-53
2022/01/27 07:37:15;;;;;;;;;;;15.30;32.60;;;;;;8331376;28;20432;-54
2022/01/27 07:41:17;;;;;;;;;;;15.30;32.60;;;;;;8331574;28;20401;-53
2022/01/27 07:45:18;;;;;;;;;;;15.20;32.50;;;;;;8331385;28;19925;-54
2022/01/27 07:49:18;;;;;;;;;;;15.20;32.60;;;;;;8331036;28;19921;-50
2022/01/27 07:53:19;;;;;;;;;;;15.20;32.50;;;;;;8313398;28;19970;-52
2022/01/27 07:57:19;;;;;;;;;;;15.30;32.60;;;;;;8331169;28;19917;-51
2022/01/27 08:01:20;;;;;;;;;;;15.20;32.50;;;;;;8330109;28;19917;-51
2022/01/27 08:05:21;;;;;;;;;;;15.30;32.60;;;;;;8330769;28;19926;-52
2022/01/27 08:09:21;;;;;;;;;;;15.20;32.60;;;;;;8329997;28;20000;-50
2022/01/27 08:13:21;;;;;;;;;;;15.20;32.50;;;;;;8330210;28;20282;-52
2022/01/27 08:17:22;;;;;;;;;;;15.20;32.60;;;;;;8330332;28;19917;-52
2022/01/27 08:21:22;;;;;;;;;;;15.20;32.60;;;;;;8330361;28;20365;-49
2022/01/27 08:25:23;;;;;;;;;;;15.20;32.60;;;;;;8329794;28;19944;-55
2022/01/27 08:29:31;;;;;;;;;;;15.20;32.70;;;;;;8330564;28;19924;-54
2022/01/27 08:33:33;;;;;;;;;;;15.20;32.60;;;;;;8333779;28;19917;-54
2022/01/27 08:37:33;;;;;;;;;;;15.20;32.70;;;;;;8329538;28;19971;-53
2022/01/27 08:41:34;;;;;;;;;;;15.20;32.70;;;;;;8329908;28;19917;-51
2022/01/27 08:45:34;;;;;;;;;;;15.20;32.70;;;;;;8329743;28;20003;-54
2022/01/27 08:49:35;;;;;;;;;;;15.30;32.60;;;;;;8329608;28;20465;-52
2022/01/27 08:53:37;;;;;;;;;;;15.30;32.60;;;;;;8329603;28;19925;-52
2022/01/27 08:57:37;;;;;;;;;;;15.30;32.60;;;;;;8329668;28;19921;-53
2022/01/27 09:01:40;;;;;;;;;;;15.30;32.50;;;;;;8329077;28;19963;-52
2022/01/27 09:05:41;;;;;;;;;;;15.30;32.50;;;;;;8329376;28;20004;-54
2022/01/27 09:09:42;;;;;;;;;;;15.40;32.50;;;;;;8329744;28;19967;-53
2022/01/27 09:13:43;;;;;;;;;;;15.40;32.50;;;;;;8331490;28;19928;-54
2022/01/27 09:17:43;;;;;;;;;;;15.40;32.40;;;;;;8335920;28;20315;-55
2022/01/27 09:21:44;;;;;;;;;;;15.40;32.50;;;;;;8335681;28;19917;-51
2022/01/27 09:25:47;;;;;;;;;;;15.40;32.50;;;;;;8339439;28;20027;-54
2022/01/27 09:29:48;;;;;;;;;;;15.40;32.50;;;;;;8352718;28;19913;-56
2022/01/27 09:33:48;;;;;;;;;;;15.40;32.50;;;;;;8335438;28;19964;-53
2022/01/27 09:37:50;;;;;;;;;;;15.40;32.50;;;;;;8334741;28;19917;-54
2022/01/27 09:41:53;;;;;;;;;;;15.40;32.50;;;;;;8335005;28;19917;-54
2022/01/27 09:45:55;;;;;;;;;;;15.40;32.50;;;;;;8316618;28;19932;-54
2022/01/27 09:50:06;;;;;;;;;;;15.40;32.50;;;;;;8335049;28;19920;-53
2022/01/27 09:54:07;;;;;;;;;;;15.40;32.60;;;;;;8339617;28;20004;-54
2022/01/27 09:58:08;;;;;;;;;;;15.40;32.50;;;;;;8334073;28;19917;-55
2022/01/27 10:02:09;;;;;;;;;;;15.30;32.50;;;;;;8334524;28;20428;-54
2022/01/27 10:06:12;;;;;;;;;;;15.30;32.50;;;;;;8334201;28;20408;-56
2022/01/27 10:10:16;;;;;;;;;;;15.30;32.50;;;;;;8334048;28;19971;-54
2022/01/27 10:14:19;;;;;;;;;;;15.30;32.50;;;;;;8334084;28;20062;-55
2022/01/27 10:18:21;;;;;;;;;;;15.30;32.50;;;;;;8334411;28;19992;-52
2022/01/27 10:22:23;;;;;;;;;;;15.30;32.60;;;;;;8333733;28;19949;-54
2022/01/27 10:26:30;;;;;;;;;;;15.30;32.60;;;;;;8333625;28;19941;-54
2022/01/27 10:34:51;;;;;;;;;;;15.30;32.60;;;;;;8333234;28;19924;-55
2022/01/27 10:38:52;;;;;;;;;;;15.30;32.60;;;;;;8307271;28;19975;-56
2022/01/27 10:43:03;;;;;;;;;;;15.20;32.60;;;;;;8300569;28;19917;-52
2022/01/27 10:47:10;;;;;;;;;;;15.20;32.60;;;;;;8300198;28;20305;-56
2022/01/27 10:51:17;;;;;;;;;;;15.30;32.60;;;;;;8301096;28;19972;-56
2022/01/27 10:55:19;;;;;;;;;;;15.20;32.50;;;;;;8301437;28;19914;-56
2022/01/27 10:59:20;;;;;;;;;;;15.30;32.60;;;;;;8300085;28;19917;-55
2022/01/27 11:03:21;;;;;;;;;;;15.30;32.60;;;;;;8299867;28;20015;-56
2022/01/27 11:07:24;;;;;;;;;;;15.30;32.60;;;;;;8298254;28;20008;-56
2022/01/27 11:11:26;;;;;;;;;;;15.30;32.50;;;;;;8299510;28;19918;-56
2022/01/27 11:15:27;;;;;;;;;;;15.30;32.50;;;;;;8299661;28;19918;-56
2022/01/27 11:27:44;;;;;;;;;;;15.30;32.40;;;;;;8302277;28;19997;-54
2022/01/27 11:32:03;;;;;;;;;;;15.40;32.40;;;;;;8298342;28;19960;-52
2022/01/27 11:36:07;;;;;;;;;;;15.40;32.30;;;;;;8298614;28;19940;-54
2022/01/27 11:40:09;;;;;;;;;;;15.40;32.30;;;;;;8298379;28;19917;-54
2022/01/27 11:44:23;;;;;;;;;;;15.40;32.30;;;;;;8298591;28;19925;-54
2022/01/27 11:48:26;;;;;;;;;;;15.40;32.30;;;;;;8298595;28;19921;-54
2022/01/27 11:52:30;;;;;;;;;;;15.50;32.30;;;;;;8297843;28;19922;-53
2022/01/27 11:56:35;;;;;;;;;;;15.50;32.30;;;;;;8298531;28;19964;-55
2022/01/27 12:00:37;;;;;;;;;;;15.50;32.30;;;;;;8298532;28;20020;-54
2022/01/27 12:04:37;;;;;;;;;;;15.50;32.30;;;;;;8297641;28;19944;-54
2022/01/27 12:08:38;;;;;;;;;;;15.50;32.30;;;;;;8297689;28;19917;-55
2022/01/27 12:12:39;;;;;;;;;;;15.50;32.30;;;;;;8297777;28;20576;-54
2022/01/27 12:16:52;;;;;;;;;;;15.50;32.30;;;;;;8297396;28;20008;-53
2022/01/27 12:20:52;;;;;;;;;;;15.50;32.30;;;;;;8299574;28;20003;-54
2022/01/27 12:25:03;;;;;;;;;;;15.50;32.30;;;;;;8297271;28;20303;-55
2022/01/27 12:29:04;;;;;;;;;;;15.50;32.30;;;;;;8297494;28;20004;-53
2022/01/27 12:33:04;;;;;;;;;;;15.50;32.40;;;;;;8297181;28;20300;-53
2022/01/27 12:37:08;;;;;;;;;;;15.50;32.30;;;;;;8297218;28;19921;-54
2022/01/27 12:41:09;;;;;;;;;;;15.50;32.40;;;;;;8297417;28;19914;-54
2022/01/27 12:45:12;;;;;;;;;;;15.50;32.40;;;;;;8297184;28;20024;-54
2022/01/27 12:49:12;;;;;;;;;;;15.50;32.40;;;;;;8300315;28;20390;-53
2022/01/27 12:53:15;;;;;;;;;;;15.50;32.40;;;;;;8304087;28;19917;-54
2022/01/27 12:57:21;;;;;;;;;;;15.50;32.40;;;;;;8303751;28;19913;-55
2022/01/27 13:01:21;;;;;;;;;;;15.50;32.40;;;;;;8303266;28;20345;-55
2022/01/27 13:05:22;;;;;;;;;;;15.50;32.40;;;;;;8303834;28;19925;-54
2022/01/27 13:09:22;;;;;;;;;;;15.50;32.40;;;;;;8303343;28;19925;-53
2022/01/27 13:13:31;;;;;;;;;;;15.50;32.40;;;;;;8302748;28;20414;-52
2022/01/27 13:17:37;;;;;;;;;;;15.50;32.50;;;;;;8309474;28;19920;-53
2022/01/27 13:21:41;;;;;;;;;;;15.50;32.40;;;;;;8306753;28;19924;-55
2022/01/27 13:25:58;;;;;;;;;;;15.50;32.40;;;;;;8285081;28;19926;-53
2022/01/27 13:30:00;;;;;;;;;;;15.50;32.40;;;;;;8299490;28;20358;-51
2022/01/27 13:34:02;;;;;;;;;;;15.50;32.40;;;;;;8302170;28;19913;-54
2022/01/27 13:38:07;;;;;;;;;;;15.50;32.40;;;;;;8302445;28;19913;-55
2022/01/27 13:42:08;;;;;;;;;;;15.50;32.40;;;;;;8302431;28;20024;-54
2022/01/27 13:46:10;;;;;;;;;;;15.50;32.40;;;;;;8301968;28;19925;-55
2022/01/27 13:50:12;;;;;;;;;;;15.50;32.40;;;;;;8302236;28;19987;-54
2022/01/27 13:54:12;;;;;;;;;;;15.50;32.40;;;;;;8302079;28;19913;-53
2022/01/27 13:58:22;;;;;;;;;;;15.50;32.40;;;;;;8300829;28;19925;-53
2022/01/27 14:02:26;;;;;;;;;;;15.50;32.40;;;;;;8301682;28;20048;-55
2022/01/27 14:06:27;;;;;;;;;;;15.50;32.40;;;;;;8300733;28;20011;-54
2022/01/27 14:10:31;;;;;;;;;;;15.50;32.40;;;;;;8300685;28;20004;-54
2022/01/27 14:14:48;;;;;;;;;;;15.50;32.40;;;;;;8301167;28;19960;-55
2022/01/27 14:18:50;;;;;;;;;;;15.50;32.50;;;;;;8301329;28;19913;-54
2022/01/27 14:23:14;;;;;;;;;;;15.50;32.50;;;;;;8300675;28;20393;-52
2022/01/27 14:27:15;;;;;;;;;;;15.50;32.50;;;;;;8301327;28;20012;-54
2022/01/27 14:31:16;;;;;;;;;;;15.50;32.50;;;;;;8300622;28;19924;-55
2022/01/27 14:35:17;;;;;;;;;;;15.40;32.40;;;;;;8300554;28;20263;-55
2022/01/27 14:39:19;;;;;;;;;;;15.40;32.40;;;;;;8300576;28;19917;-53
2022/01/27 14:43:20;;;;;;;;;;;15.50;32.40;;;;;;8300082;28;19918;-53
2022/01/27 14:47:21;;;;;;;;;;;15.50;32.40;;;;;;8301708;28;19914;-53
2022/01/27 14:51:21;;;;;;;;;;;15.50;32.50;;;;;;8300232;28;19918;-53
2022/01/27 14:55:22;;;;;;;;;;;15.50;32.50;;;;;;8299542;28;20025;-53
2022/01/27 14:59:24;;;;;;;;;;;15.50;32.40;;;;;;8282297;28;19919;-55
2022/01/27 15:03:24;;;;;;;;;;;15.50;32.30;;;;;;8298231;28;19921;-55
2022/01/27 15:07:25;;;;;;;;;;;15.50;32.30;;;;;;8299544;28;19955;-54
2022/01/27 15:11:25;;;;;;;;;;;15.50;32.20;;;;;;8298980;28;20415;-53
2022/01/27 15:19:46;;;;;;;;;;;15.60;32.30;;;;;;8299309;28;20011;-53
2022/01/27 15:23:48;;;;;;;;;;;15.60;32.20;;;;;;8299248;28;20008;-54
2022/01/27 15:27:49;;;;;;;;;;;15.60;32.30;;;;;;8299288;28;19914;-53
2022/01/27 15:31:50;;;;;;;;;;;15.60;32.30;;;;;;8298780;28;19920;-57
2022/01/27 15:35:50;;;;;;;;;;;15.60;32.80;;;;;;8298967;28;19917;-54
2022/01/27 15:39:55;;;;;;;;;;;15.60;32.40;;;;;;8298823;28;19918;-54
2022/01/27 15:43:56;;;;;;;;;;;15.60;32.30;;;;;;8331057;28;19933;-54
2022/01/27 15:47:57;;;;;;;;;;;15.60;32.30;;;;;;8331146;28;19913;-53
2022/01/27 15:51:58;;;;;;;;;;;15.50;32.30;;;;;;8330850;28;20369;-53
2022/01/27 15:55:58;;;;;;;;;;;15.50;32.30;;;;;;8331144;28;19924;-53
2022/01/27 15:59:58;;;;;;;;;;;15.50;32.40;;;;;;8330951;28;19921;-54
2022/01/27 16:03:59;;;;;;;;;;;15.50;32.40;;;;;;8330338;28;19925;-53
2022/01/27 16:07:59;;;;;;;;;;;15.50;32.40;;;;;;8330529;28;19924;-52
2022/01/27 16:12:00;;;;;;;;;;;15.50;32.40;;;;;;8330938;28;20004;-54
2022/01/27 16:16:00;;;;;;;;;;;15.50;32.40;;;;;;8329806;28;19917;-51
2022/01/27 16:20:01;;;;;;;;;;;15.50;32.40;;;;;;8330500;28;19924;-54
2022/01/27 16:24:03;;;;;;;;;;;15.50;32.50;;;;;;8330259;28;19971;-53
2022/01/27 16:28:03;;;;;;;;;;;15.50;32.50;;;;;;8329814;28;19919;-54
2022/01/27 16:32:04;;;;;;;;;;;15.50;32.50;;;;;;8330592;28;19914;-54
2022/01/27 16:36:06;;;;;;;;;;;15.40;32.40;;;;;;8330110;28;19924;-54
2022/01/27 16:40:08;;;;;;;;;;;15.40;32.40;;;;;;8329274;28;20004;-54
2022/01/27 16:44:08;;;;;;;;;;;15.40;32.40;;;;;;8329581;28;19932;-57
2022/01/27 16:48:12;;;;;;;;;;;15.30;32.40;;;;;;8329968;28;19944;-58
2022/01/27 16:52:12;;;;;;;;;;;15.40;32.40;;;;;;8329532;28;21716;-54
2022/01/27 16:56:13;;;;;;;;;;;15.40;32.50;;;;;;8329012;28;19917;-53
2022/01/27 17:00:13;;;;;;;;;;;15.40;32.50;;;;;;8328507;28;20340;-53
2022/01/27 17:04:14;;;;;;;;;;;15.30;32.50;;;;;;8318204;28;20235;-54
2022/01/27 17:08:15;;;;;;;;;;;15.30;32.50;;;;;;8328110;28;19917;-53
2022/01/27 17:12:15;;;;;;;;;;;15.30;32.50;;;;;;8326290;28;19922;-53
2022/01/27 17:16:17;;;;;;;;;;;15.30;32.50;;;;;;8316097;28;19917;-53
2022/01/27 17:20:18;;;;;;;;;;;15.30;32.50;;;;;;8320413;28;20259;-54
2022/01/27 17:24:18;;;;;;;;;;;15.30;32.50;;;;;;8323423;28;19920;-54
2022/01/27 17:28:19;;;;;;;;;;;15.30;32.50;;;;;;8344799;28;19922;-55
2022/01/27 17:32:19;;;;;;;;;;;15.30;32.50;;;;;;8330097;28;20374;-53
2022/01/27 17:36:20;;;;;;;;;;;15.30;32.50;;;;;;8313006;28;19918;-54
2022/01/27 17:40:21;;;;;;;;;;;15.30;32.50;;;;;;8316652;28;20007;-53
2022/01/27 17:44:23;;;;;;;;;;;15.30;32.50;;;;;;8334145;28;20015;-55
2022/01/27 17:48:24;;;;;;;;;;;15.30;32.50;;;;;;8333937;28;19921;-55
2022/01/27 17:52:24;;;;;;;;;;;15.30;32.50;;;;;;8333391;28;20378;-53
2022/01/27 17:56:25;;;;;;;;;;;15.30;32.50;;;;;;8334194;28;20402;-54
2022/01/27 18:00:25;;;;;;;;;;;15.40;32.40;;;;;;8334151;28;19917;-54
2022/01/27 18:04:25;;;;;;;;;;;15.40;32.30;;;;;;8333768;28;19971;-54
2022/01/27 18:08:27;;;;;;;;;;;15.40;32.20;;;;;;8334503;28;20366;-51
2022/01/27 18:12:27;;;;;;;;;;;15.40;32.20;;;;;;8334195;28;19921;-53
2022/01/27 18:16:28;;;;;;;;;;;15.40;32.20;;;;;;8333347;28;19925;-55
2022/01/27 18:20:30;;;;;;;;;;;15.40;32.10;;;;;;8333614;28;19917;-54
2022/01/27 18:24:30;;;;;;;;;;;15.40;32.30;;;;;;8328637;28;19928;-55
2022/01/27 18:28:31;;;;;;;;;;;15.50;32.30;;;;;;8366285;28;20357;-52
2022/01/27 18:32:31;;;;;;;;;;;15.50;32.30;;;;;;8366160;28;20281;-51
2022/01/27 18:36:32;;;;;;;;;;;15.50;32.30;;;;;;8366534;28;19917;-54
2022/01/27 18:40:32;;;;;;;;;;;15.50;32.40;;;;;;8365128;28;20051;-55
2022/01/27 18:44:33;;;;;;;;;;;15.50;32.40;;;;;;8365691;28;20321;-52
2022/01/27 18:48:36;;;;;;;;;;;15.50;33.00;;;;;;8340364;28;19948;-54
2022/01/27 18:52:38;;;;;;;;;;;15.50;32.50;;;;;;8337279;28;19917;-53
2022/01/27 18:56:39;;;;;;;;;;;15.50;32.50;;;;;;8332709;28;19921;-52
2022/01/27 19:00:39;;;;;;;;;;;15.50;32.50;;;;;;8320243;28;19959;-55
2022/01/27 19:04:40;;;;;;;;;;;15.40;32.50;;;;;;8302597;28;20215;-54
2022/01/27 19:08:40;;;;;;;;;;;15.40;32.50;;;;;;8299873;28;19996;-53
2022/01/27 19:12:44;;;;;;;;;;;15.40;32.50;;;;;;8358006;28;19943;-55
2022/01/27 19:16:44;;;;;;;;;;;15.40;32.60;;;;;;8363512;28;19999;-53
2022/01/27 19:20:45;;;;;;;;;;;15.40;32.60;;;;;;8332134;28;19943;-56
2022/01/27 19:24:46;;;;;;;;;;;15.40;32.60;;;;;;8331783;28;19930;-55
2022/01/27 19:28:46;;;;;;;;;;;15.40;32.60;;;;;;8331462;28;19913;-56
2022/01/27 19:32:49;;;;;;;;;;;15.40;32.60;;;;;;8331553;28;20333;-51
2022/01/27 19:36:49;;;;;;;;;;;15.40;32.70;;;;;;8331669;28;19987;-55
2022/01/27 19:40:50;;;;;;;;;;;15.40;32.70;;;;;;8330971;28;20000;-51
2022/01/27 19:44:50;;;;;;;;;;;15.40;32.70;;;;;;8331234;28;20016;-54
2022/01/27 19:48:51;;;;;;;;;;;15.40;32.70;;;;;;8331554;28;19917;-51
2022/01/27 19:52:54;;;;;;;;;;;15.40;33.30;;;;;;8330554;28;20373;-54
2022/01/27 19:56:55;;;;;;;;;;;15.40;32.70;;;;;;8341304;28;19962;-53
2022/01/27 20:00:55;;;;;;;;;;;15.40;32.80;;;;;;8363477;28;19917;-55
2022/01/27 20:04:56;;;;;;;;;;;15.30;33.00;;;;;;8340281;28;19974;-53
2022/01/27 20:08:56;;;;;;;;;;;15.30;32.80;;;;;;8328832;28;20000;-53
2022/01/27 20:12:58;;;;;;;;;;;15.30;32.80;;;;;;8325694;28;19917;-55
2022/01/27 20:16:59;;;;;;;;;;;15.30;32.90;;;;;;8330171;28;20005;-56
2022/01/27 20:21:00;;;;;;;;;;;15.30;33.00;;;;;;8330296;28;19917;-57
2022/01/27 20:25:01;;;;;;;;;;;15.30;33.00;;;;;;8329773;28;20458;-52
2022/01/27 20:29:03;;;;;;;;;;;15.30;33.00;;;;;;8330570;28;20370;-55
2022/01/27 20:33:04;;;;;;;;;;;15.30;33.00;;;;;;8329998;28;20377;-55
2022/01/27 20:37:05;;;;;;;;;;;15.30;33.00;;;;;;8329692;28;19917;-54
2022/01/27 20:41:05;;;;;;;;;;;15.30;33.00;;;;;;8330266;28;20445;-53
2022/01/27 20:45:06;;;;;;;;;;;15.30;33.10;;;;;;8329698;28;19925;-54
2022/01/27 20:49:06;;;;;;;;;;;15.30;33.60;;;;;;8329685;28;19917;-55
2022/01/27 20:53:08;;;;;;;;;;;15.30;33.10;;;;;;8329801;28;20390;-53
2022/01/27 20:57:09;;;;;;;;;;;15.30;33.10;;;;;;8330249;28;19924;-54
2022/01/27 21:01:11;;;;;;;;;;;15.30;33.10;;;;;;8329509;28;20353;-59
2022/01/27 21:05:12;;;;;;;;;;;15.30;33.10;;;;;;8329306;28;20013;-54
2022/01/27 21:09:15;;;;;;;;;;;15.30;33.10;;;;;;8331702;28;19924;-54
2022/01/27 21:13:15;;;;;;;;;;;15.30;33.10;;;;;;8335669;28;19923;-55
2022/01/27 21:17:16;;;;;;;;;;;15.40;33.10;;;;;;8336204;28;19924;-56
2022/01/27 21:21:18;;;;;;;;;;;15.40;33.10;;;;;;8336053;28;19920;-53
2022/01/27 21:25:19;;;;;;;;;;;15.50;33.10;;;;;;8335224;28;19940;-53
2022/01/27 21:29:19;;;;;;;;;;;15.50;33.10;;;;;;8335952;28;19917;-53
2022/01/27 21:33:20;;;;;;;;;;;15.50;33.00;;;;;;8335607;28;19938;-55
2022/01/27 21:37:21;;;;;;;;;;;15.50;33.00;;;;;;8335036;28;19917;-55
2022/01/27 21:41:22;;;;;;;;;;;15.50;33.00;;;;;;8335402;28;19936;-56
2022/01/27 21:45:28;;;;;;;;;;;15.50;33.00;;;;;;8335100;28;19970;-57
2022/01/27 21:49:28;;;;;;;;;;;15.50;33.00;;;;;;8317009;28;19917;-55
2022/01/27 21:53:29;;;;;;;;;;;15.50;33.10;;;;;;8335065;28;19924;-54
2022/01/27 21:57:29;;;;;;;;;;;15.50;33.10;;;;;;8334976;28;19920;-55
2022/01/27 22:01:30;;;;;;;;;;;15.50;33.00;;;;;;8334125;28;19924;-54
2022/01/27 22:05:30;;;;;;;;;;;15.50;33.10;;;;;;8334540;28;19932;-55
2022/01/27 22:09:31;;;;;;;;;;;15.50;33.10;;;;;;8334540;28;20004;-56
2022/01/27 22:13:36;;;;;;;;;;;15.50;33.10;;;;;;8333804;28;19921;-56
2022/01/27 22:17:37;;;;;;;;;;;15.50;33.20;;;;;;8334264;28;20012;-54
2022/01/27 22:21:37;;;;;;;;;;;15.50;33.20;;;;;;8333695;28;19925;-53
2022/01/27 22:25:37;;;;;;;;;;;15.50;33.20;;;;;;8333364;28;20354;-54
2022/01/27 22:29:38;;;;;;;;;;;15.40;33.10;;;;;;8334187;28;19917;-55
2022/01/27 22:33:44;;;;;;;;;;;15.50;33.20;;;;;;8333765;28;19924;-57
2022/01/27 22:37:44;;;;;;;;;;;15.40;33.80;;;;;;8331109;28;19924;-56
2022/01/27 22:41:46;;;;;;;;;;;15.40;33.30;;;;;;8333632;28;20370;-53
2022/01/27 22:45:47;;;;;;;;;;;15.40;33.30;;;;;;8333157;28;19925;-54
2022/01/27 22:49:47;;;;;;;;;;;15.40;33.30;;;;;;8332994;28;19979;-53
2022/01/27 22:53:48;;;;;;;;;;;15.40;33.30;;;;;;8333192;28;19986;-53
2022/01/27 22:57:48;;;;;;;;;;;15.40;33.30;;;;;;8333153;28;20352;-55
2022/01/27 23:01:49;;;;;;;;;;;15.40;33.40;;;;;;8330834;28;19917;-56
2022/01/27 23:05:50;;;;;;;;;;;15.40;33.40;;;;;;8332718;28;20020;-55
2022/01/27 23:09:50;;;;;;;;;;;15.30;33.40;;;;;;8332854;28;19917;-54
2022/01/27 23:13:53;;;;;;;;;;;15.40;33.40;;;;;;8331983;28;19918;-53
2022/01/27 23:22:13;;;;;;;;;;;15.30;33.40;;;;;;8331892;28;19913;-52
2022/01/27 23:26:26;;;;;;;;;;;15.40;33.50;;;;;;8314332;28;19928;-55
2022/01/27 23:30:36;;;;;;;;;;;15.40;33.50;;;;;;8331964;28;20006;-54
2022/01/27 23:34:36;;;;;;;;;;;15.40;33.50;;;;;;8313128;28;19928;-54
2022/01/27 23:47:56;;;;;;;;;;;15.50;33.50;;;;;;8311954;28;19930;-54
2022/01/27 23:52:04;;;;;;;;;;;15.40;33.40;;;;;;8330989;28;19924;-54
2022/01/27 23:56:11;;;;;;;;;;;15.50;33.50;;;;;;8332336;28;19913;-52
